sensor_id;sensor_type;location;lat;lon;timestamp;pressure;altitude;pressure_sealevel;temperature;humidity
64243;BME280;50573;51.512;5.386;2023-04-19T00:08:46;102366.22;;;10.10;89.21
64243;BME280;50573;51.512;5.386;2023-04-19T00:18:50;102357.66;;;10.22;88.09
64243;BME280;50573;51.512;5.386;2023-04-19T00:28:53;102359.19;;;10.34;87.09
64243;BME280;50573;51.512;5.386;2023-04-19T00:38:58;102352.56;;;10.45;87.04
64243;BME280;50573;51.512;5.386;2023-04-19T00:49:04;102347.88;;;10.46;87.09
64243;BME280;50573;51.512;5.386;2023-04-19T00:59:11;102341.22;;;10.54;87.61
64243;BME280;50573;51.512;5.386;2023-04-19T01:09:14;102334.97;;;10.60;87.42
64243;BME280;50573;51.512;5.386;2023-04-19T01:19:18;102352.13;;;10.61;87.64
64243;BME280;50573;51.512;5.386;2023-04-19T01:29:23;102349.00;;;10.59;88.30
64243;BME280;50573;51.512;5.386;2023-04-19T01:39:26;102343.53;;;10.62;88.39
64243;BME280;50573;51.512;5.386;2023-04-19T01:49:30;102337.69;;;10.64;88.59
64243;BME280;50573;51.512;5.386;2023-04-19T01:59:33;102335.75;;;10.64;89.79
64243;BME280;50573;51.512;5.386;2023-04-19T02:09:38;102325.59;;;10.68;89.42
64243;BME280;50573;51.512;5.386;2023-04-19T02:19:41;102317.00;;;10.77;89.64
64243;BME280;50573;51.512;5.386;2023-04-19T02:29:45;102306.06;;;10.87;89.68
64243;BME280;50573;51.512;5.386;2023-04-19T02:39:49;102314.97;;;10.98;89.72
64243;BME280;50573;51.512;5.386;2023-04-19T02:49:53;102311.84;;;10.96;90.20
64243;BME280;50573;51.512;5.386;2023-04-19T02:59:56;102315.34;;;11.00;90.23
64243;BME280;50573;51.512;5.386;2023-04-19T03:10:01;102318.84;;;10.97;90.97
64243;BME280;50573;51.512;5.386;2023-04-19T03:20:06;102306.78;;;11.02;91.07
64243;BME280;50573;51.512;5.386;2023-04-19T03:30:15;102317.00;;;10.80;92.18
64243;BME280;50573;51.512;5.386;2023-04-19T03:40:19;102293.66;;;10.72;92.13
64243;BME280;50573;51.512;5.386;2023-04-19T03:50:24;102297.16;;;10.76;92.03
64243;BME280;50573;51.512;5.386;2023-04-19T04:00:29;102297.94;;;10.73;92.60
64243;BME280;50573;51.512;5.386;2023-04-19T04:10:35;102308.47;;;10.71;92.43
64243;BME280;50573;51.512;5.386;2023-04-19T04:20:40;102300.41;;;10.50;92.99
64243;BME280;50573;51.512;5.386;2023-04-19T04:30:47;102306.59;;;10.47;92.58
64243;BME280;50573;51.512;5.386;2023-04-19T04:40:51;102307.06;;;10.32;92.88
64243;BME280;50573;51.512;5.386;2023-04-19T04:50:56;102310.56;;;10.18;92.83
64243;BME280;50573;51.512;5.386;2023-04-19T05:01:01;102324.22;;;10.11;92.40
64243;BME280;50573;51.512;5.386;2023-04-19T05:11:11;102333.16;;;9.94;91.79
64243;BME280;50573;51.512;5.386;2023-04-19T05:21:15;102335.09;;;9.76;90.80
64243;BME280;50573;51.512;5.386;2023-04-19T05:31:20;102333.53;;;9.71;90.55
64243;BME280;50573;51.512;5.386;2023-04-19T05:41:40;102343.66;;;9.74;90.53
64243;BME280;50573;51.512;5.386;2023-04-19T05:51:44;102337.06;;;9.72;90.31
64243;BME280;50573;51.512;5.386;2023-04-19T06:01:58;102348.72;;;9.65;90.33
64243;BME280;50573;51.512;5.386;2023-04-19T06:12:04;102345.59;;;9.53;89.66
64243;BME280;50573;51.512;5.386;2023-04-19T06:22:07;102364.25;;;9.86;87.18
64243;BME280;50573;51.512;5.386;2023-04-19T06:32:12;102344.44;;;10.14;82.94
64243;BME280;50573;51.512;5.386;2023-04-19T06:42:15;102332.69;;;10.45;79.59
64243;BME280;50573;51.512;5.386;2023-04-19T06:52:22;102340.47;;;10.53;76.14
64243;BME280;50573;51.512;5.386;2023-04-19T07:02:25;102346.28;;;10.62;73.99
64243;BME280;50573;51.512;5.386;2023-04-19T07:12:29;102348.50;;;10.92;71.78
64243;BME280;50573;51.512;5.386;2023-04-19T07:22:32;102345.28;;;11.07;70.43
64243;BME280;50573;51.512;5.386;2023-04-19T07:32:37;102348.72;;;11.18;68.52
64243;BME280;50573;51.512;5.386;2023-04-19T07:42:41;102345.88;;;11.40;66.73
64243;BME280;50573;51.512;5.386;2023-04-19T07:52:46;102338.72;;;11.67;65.00
64243;BME280;50573;51.512;5.386;2023-04-19T08:02:49;102340.06;;;11.89;64.67
64243;BME280;50573;51.512;5.386;2023-04-19T08:12:54;102338.44;;;11.98;62.49
64243;BME280;50573;51.512;5.386;2023-04-19T08:23:06;102336.50;;;12.36;62.51
64243;BME280;50573;51.512;5.386;2023-04-19T08:33:23;102321.78;;;12.60;60.93
64243;BME280;50573;51.512;5.386;2023-04-19T08:43:29;102324.88;;;12.62;58.05
64243;BME280;50573;51.512;5.386;2023-04-19T08:53:35;102325.25;;;12.94;56.13
64243;BME280;50573;51.512;5.386;2023-04-19T09:03:42;102325.03;;;13.12;55.06
64243;BME280;50573;51.512;5.386;2023-04-19T09:14:09;102320.53;;;13.51;54.59
64243;BME280;50573;51.512;5.386;2023-04-19T09:24:12;102310.97;;;13.63;52.18
64243;BME280;50573;51.512;5.386;2023-04-19T09:34:17;102323.41;;;13.67;50.37
64243;BME280;50573;51.512;5.386;2023-04-19T09:44:21;102321.16;;;13.85;49.18
64243;BME280;50573;51.512;5.386;2023-04-19T09:54:29;102314.72;;;13.72;47.61
64243;BME280;50573;51.512;5.386;2023-04-19T10:04:34;102316.78;;;13.88;48.00
64243;BME280;50573;51.512;5.386;2023-04-19T10:15:12;102319.13;;;13.89;44.23
64243;BME280;50573;51.512;5.386;2023-04-19T10:25:27;102315.94;;;13.91;45.04
64243;BME280;50573;51.512;5.386;2023-04-19T10:35:35;102307.09;;;13.60;42.80
64243;BME280;50573;51.512;5.386;2023-04-19T10:45:39;102300.09;;;13.82;42.86
64243;BME280;50573;51.512;5.386;2023-04-19T10:55:50;102297.25;;;13.86;39.15
64243;BME280;50573;51.512;5.386;2023-04-19T11:06:15;102284.44;;;14.26;38.48
64243;BME280;50573;51.512;5.386;2023-04-19T11:16:20;102281.44;;;14.17;39.21
64243;BME280;50573;51.512;5.386;2023-04-19T11:26:43;102288.25;;;14.09;39.40
64243;BME280;50573;51.512;5.386;2023-04-19T11:36:49;102277.66;;;14.30;40.94
64243;BME280;50573;51.512;5.386;2023-04-19T11:46:59;102255.97;;;14.39;41.26
64243;BME280;50573;51.512;5.386;2023-04-19T11:57:06;102250.66;;;14.48;40.82
64243;BME280;50573;51.512;5.386;2023-04-19T12:07:09;102239.72;;;14.84;38.08
64243;BME280;50573;51.512;5.386;2023-04-19T12:17:14;102224.97;;;15.10;37.28
64243;BME280;50573;51.512;5.386;2023-04-19T12:27:17;102208.34;;;15.33;36.19
64243;BME280;50573;51.512;5.386;2023-04-19T12:37:21;102214.34;;;15.28;35.25
64243;BME280;50573;51.512;5.386;2023-04-19T12:47:24;102210.84;;;15.44;33.44
64243;BME280;50573;51.512;5.386;2023-04-19T12:57:29;102196.84;;;15.38;32.07
64243;BME280;50573;51.512;5.386;2023-04-19T13:07:32;102193.19;;;15.73;31.27
64243;BME280;50573;51.512;5.386;2023-04-19T13:17:43;102165.31;;;15.87;29.59
64243;BME280;50573;51.512;5.386;2023-04-19T13:27:50;102150.16;;;15.95;29.62
64243;BME280;50573;51.512;5.386;2023-04-19T13:37:57;102153.69;;;15.96;31.01
64243;BME280;50573;51.512;5.386;2023-04-19T13:48:06;102106.19;;;15.95;31.12
64243;BME280;50573;51.512;5.386;2023-04-19T13:58:14;102116.69;;;16.38;32.03
64243;BME280;50573;51.512;5.386;2023-04-19T14:08:26;102109.94;;;16.01;31.44
64243;BME280;50573;51.512;5.386;2023-04-19T14:18:33;102100.50;;;16.15;32.04
64243;BME280;50573;51.512;5.386;2023-04-19T14:28:39;102084.56;;;16.47;31.32
64243;BME280;50573;51.512;5.386;2023-04-19T14:38:50;102075.44;;;16.63;30.90
64243;BME280;50573;51.512;5.386;2023-04-19T14:48:56;102070.19;;;17.24;30.37
64243;BME280;50573;51.512;5.386;2023-04-19T14:59:05;102056.31;;;17.71;30.00
64243;BME280;50573;51.512;5.386;2023-04-19T15:09:19;102037.72;;;17.41;30.00
64243;BME280;50573;51.512;5.386;2023-04-19T15:19:22;102044.41;;;18.14;29.70
64243;BME280;50573;51.512;5.386;2023-04-19T15:29:30;102022.69;;;18.34;29.84
64243;BME280;50573;51.512;5.386;2023-04-19T15:39:36;102022.69;;;18.34;28.86
64243;BME280;50573;51.512;5.386;2023-04-19T15:49:46;102008.84;;;18.07;30.54
64243;BME280;50573;51.512;5.386;2023-04-19T15:59:51;102006.84;;;17.24;31.21
64243;BME280;50573;51.512;5.386;2023-04-19T16:10:03;102004.69;;;16.38;33.58
64243;BME280;50573;51.512;5.386;2023-04-19T16:20:10;102003.81;;;15.66;35.31
64243;BME280;50573;51.512;5.386;2023-04-19T16:30:19;101977.09;;;15.13;35.88
64243;BME280;50573;51.512;5.386;2023-04-19T16:40:27;101976.13;;;14.91;37.52
64243;BME280;50573;51.512;5.386;2023-04-19T16:50:47;101972.31;;;14.72;36.87
64243;BME280;50573;51.512;5.386;2023-04-19T17:00:50;101972.09;;;14.51;36.26
64243;BME280;50573;51.512;5.386;2023-04-19T17:10:55;101969.91;;;14.74;36.08
64243;BME280;50573;51.512;5.386;2023-04-19T17:20:59;101970.03;;;14.55;36.91
64243;BME280;50573;51.512;5.386;2023-04-19T17:31:12;101958.06;;;14.17;37.34
64243;BME280;50573;51.512;5.386;2023-04-19T17:41:16;101966.22;;;14.01;37.11
64243;BME280;50573;51.512;5.386;2023-04-19T17:51:25;101958.63;;;13.76;38.46
64243;BME280;50573;51.512;5.386;2023-04-19T18:01:35;101952.84;;;13.70;39.66
64243;BME280;50573;51.512;5.386;2023-04-19T18:11:43;101958.63;;;13.40;40.50
64243;BME280;50573;51.512;5.386;2023-04-19T18:21:48;101954.50;;;13.13;38.41
64243;BME280;50573;51.512;5.386;2023-04-19T18:31:59;101966.00;;;12.81;38.32
64243;BME280;50573;51.512;5.386;2023-04-19T18:42:05;101981.41;;;12.48;38.99
64243;BME280;50573;51.512;5.386;2023-04-19T18:52:09;101995.16;;;12.22;39.37
64243;BME280;50573;51.512;5.386;2023-04-19T19:02:14;102008.34;;;12.00;40.95
64243;BME280;50573;51.512;5.386;2023-04-19T19:12:18;102013.44;;;11.72;41.73
64243;BME280;50573;51.512;5.386;2023-04-19T19:22:22;102010.56;;;11.49;42.71
64243;BME280;50573;51.512;5.386;2023-04-19T19:32:31;102016.34;;;11.20;44.35
64243;BME280;50573;51.512;5.386;2023-04-19T19:42:35;102014.16;;;11.08;43.14
64243;BME280;50573;51.512;5.386;2023-04-19T19:52:41;102017.81;;;10.91;41.83
64243;BME280;50573;51.512;5.386;2023-04-19T20:02:45;102035.09;;;10.78;41.72
64243;BME280;50573;51.512;5.386;2023-04-19T20:12:53;102025.53;;;10.59;42.55
64243;BME280;50573;51.512;5.386;2023-04-19T20:22:57;102038.91;;;10.40;43.37
64243;BME280;50573;51.512;5.386;2023-04-19T20:33:02;102041.41;;;10.13;44.24
64243;BME280;50573;51.512;5.386;2023-04-19T20:43:05;102040.34;;;9.97;44.96
64243;BME280;50573;51.512;5.386;2023-04-19T20:53:10;102047.81;;;9.82;45.50
64243;BME280;50573;51.512;5.386;2023-04-19T21:03:13;102054.50;;;9.60;46.17
64243;BME280;50573;51.512;5.386;2023-04-19T21:13:18;102053.75;;;9.42;46.52
64243;BME280;50573;51.512;5.386;2023-04-19T21:23:21;102053.41;;;9.36;47.32
64243;BME280;50573;51.512;5.386;2023-04-19T21:33:25;102046.84;;;9.27;47.11
64243;BME280;50573;51.512;5.386;2023-04-19T21:43:28;102056.56;;;9.17;47.15
64243;BME280;50573;51.512;5.386;2023-04-19T21:53:33;102053.88;;;9.03;49.05
64243;BME280;50573;51.512;5.386;2023-04-19T22:03:36;102057.00;;;8.91;47.65
64243;BME280;50573;51.512;5.386;2023-04-19T22:13:42;102048.06;;;8.87;47.20
64243;BME280;50573;51.512;5.386;2023-04-19T22:23:45;102048.09;;;8.77;46.65
64243;BME280;50573;51.512;5.386;2023-04-19T22:33:50;102047.28;;;8.66;46.76
64243;BME280;50573;51.512;5.386;2023-04-19T22:43:53;102032.97;;;8.48;47.08
64243;BME280;50573;51.512;5.386;2023-04-19T22:53:57;102032.56;;;8.31;47.78
64243;BME280;50573;51.512;5.386;2023-04-19T23:04:00;102022.81;;;8.16;47.27
64243;BME280;50573;51.512;5.386;2023-04-19T23:14:04;102018.53;;;8.08;46.62
64243;BME280;50573;51.512;5.386;2023-04-19T23:24:09;102008.00;;;7.93;46.78
64243;BME280;50573;51.512;5.386;2023-04-19T23:34:14;102007.59;;;7.80;46.68
64243;BME280;50573;51.512;5.386;2023-04-19T23:44:17;102001.75;;;7.64;47.00
64243;BME280;50573;51.512;5.386;2023-04-19T23:54:21;101992.84;;;7.60;46.91
